createdAt,value
2019-04-27T00:01:14.338Z,98.30
2019-04-27T00:04:01.400Z,98.50
2019-04-27T00:06:31.002Z,98.60
2019-04-27T00:09:07.566Z,98.90
2019-04-27T00:11:42.180Z,99.00
2019-04-27T00:14:15.064Z,99.20
2019-04-27T00:16:57.188Z,99.50
2019-04-27T00:19:43.878Z,99.60
2019-04-27T00:22:31.332Z,99.70
2019-04-27T00:25:00.253Z,99.80
2019-04-27T00:27:29.258Z,99.90
2019-04-27T00:29:58.270Z,99.90
2019-04-27T00:32:27.301Z,99.90
2019-04-27T00:34:56.622Z,99.90
2019-04-27T00:37:53.497Z,99.90
2019-04-27T00:40:35.407Z,99.90
2019-04-27T00:43:04.481Z,99.90
2019-04-27T00:45:33.697Z,99.90
2019-04-27T00:48:03.499Z,99.90
2019-04-27T00:50:33.835Z,99.90
2019-04-27T00:53:03.493Z,99.90
2019-04-27T00:55:35.145Z,99.90
2019-04-27T00:58:23.092Z,99.90
2019-04-27T01:01:12.728Z,99.90
2019-04-27T01:03:45.864Z,99.90
2019-04-27T01:06:14.992Z,99.90
2019-04-27T01:08:45.004Z,99.90
2019-04-27T01:11:14.288Z,99.90
2019-04-27T01:13:43.613Z,99.90
2019-04-27T01:16:15.627Z,99.90
2019-04-27T01:18:43.708Z,99.90
2019-04-27T01:21:12.843Z,99.90
2019-04-27T01:23:42.210Z,99.90
2019-04-27T01:26:29.462Z,99.90
2019-04-27T01:29:04.619Z,99.90
2019-04-27T01:31:33.621Z,99.90
2019-04-27T01:34:02.880Z,99.90
2019-04-27T01:36:32.196Z,99.80
2019-04-27T01:39:01.122Z,99.80
2019-04-27T01:41:30.138Z,99.80
2019-04-27T01:43:59.217Z,99.90
2019-04-27T01:46:29.587Z,99.90
2019-04-27T01:48:59.143Z,99.90
2019-04-27T01:51:29.420Z,99.90
2019-04-27T01:53:59.357Z,99.90
2019-04-27T01:56:29.395Z,99.90
2019-04-27T01:58:59.517Z,99.90
2019-04-27T02:01:46.396Z,99.90
2019-04-27T02:04:24.624Z,99.90
2019-04-27T02:06:55.076Z,99.90
2019-04-27T02:09:24.177Z,99.90
2019-04-27T02:11:53.296Z,99.90
2019-04-27T02:14:22.391Z,99.90
2019-04-27T02:16:51.520Z,99.90
2019-04-27T02:19:20.631Z,99.90
2019-04-27T02:21:51.542Z,99.90
2019-04-27T02:24:20.542Z,99.90
2019-04-27T02:26:49.795Z,99.90
2019-04-27T02:29:41.088Z,99.90
2019-04-27T02:32:39.770Z,99.90
2019-04-27T02:35:12.909Z,99.90
2019-04-27T02:37:41.955Z,99.90
2019-04-27T02:40:49.442Z,99.60
2019-04-27T02:43:19.738Z,99.30
2019-04-27T02:45:50.303Z,99.20
2019-04-27T02:48:20.085Z,98.90
2019-04-27T02:50:50.746Z,98.90
2019-04-27T02:53:39.245Z,99.00
2019-04-27T02:56:10.210Z,98.90
2019-04-27T02:58:40.615Z,98.80
2019-04-27T03:01:10.050Z,98.70
2019-04-27T03:03:41.109Z,98.60
2019-04-27T03:06:10.440Z,98.70
2019-04-27T03:08:42.577Z,98.80
2019-04-27T03:11:10.652Z,98.70
2019-04-27T03:13:51.935Z,98.70
2019-04-27T03:16:35.661Z,98.70
2019-04-27T03:19:21.975Z,98.60
2019-04-27T03:22:09.804Z,98.70
2019-04-27T03:25:03.340Z,98.90
2019-04-27T03:27:33.877Z,99.10
2019-04-27T03:30:02.997Z,99.20
2019-04-27T03:32:32.135Z,99.30
2019-04-27T03:35:03.350Z,99.40
2019-04-27T03:37:32.455Z,99.40
2019-04-27T03:40:01.462Z,99.50
2019-04-27T03:42:31.386Z,99.60
2019-04-27T03:45:00.726Z,99.70
2019-04-27T03:47:30.695Z,99.80
2019-04-27T03:50:00.433Z,99.70
2019-04-27T03:52:35.537Z,99.70
2019-04-27T03:55:12.933Z,99.80
2019-04-27T03:58:00.226Z,99.90
2019-04-27T04:00:30.216Z,99.90
2019-04-27T04:03:00.529Z,99.90
2019-04-27T04:05:30.143Z,99.90
2019-04-27T04:08:00.493Z,99.90
2019-04-27T04:10:31.417Z,99.90
2019-04-27T04:13:22.840Z,99.90
2019-04-27T04:16:07.310Z,99.90
2019-04-27T04:18:53.540Z,99.90
2019-04-27T04:21:22.568Z,99.90
2019-04-27T04:23:51.571Z,99.90
2019-04-27T04:26:20.601Z,99.90
2019-04-27T04:28:50.086Z,99.90
2019-04-27T04:31:21.054Z,99.90
2019-04-27T04:33:50.336Z,99.90
2019-04-27T04:36:20.684Z,99.90
2019-04-27T04:38:50.592Z,99.90
2019-04-27T04:41:36.406Z,99.90
2019-04-27T04:44:15.960Z,99.90
2019-04-27T04:47:13.433Z,99.90
2019-04-27T04:49:42.752Z,99.90
2019-04-27T04:52:12.039Z,99.90
2019-04-27T04:54:41.672Z,99.90
2019-04-27T04:57:10.707Z,99.90
2019-04-27T04:59:39.585Z,99.90
2019-04-27T05:02:10.637Z,99.90
2019-04-27T05:04:39.427Z,99.90
2019-04-27T05:07:09.209Z,99.90
2019-04-27T05:09:39.584Z,99.90
2019-04-27T05:12:08.938Z,99.90
2019-04-27T05:14:38.903Z,99.90
2019-04-27T05:17:09.449Z,99.80
2019-04-27T05:19:38.943Z,99.60
2019-04-27T05:22:09.355Z,99.30
2019-04-27T05:24:39.321Z,99.30
2019-04-27T05:27:09.209Z,99.30
2019-04-27T05:29:38.942Z,99.30
2019-04-27T05:32:09.135Z,99.10
2019-04-27T05:34:39.439Z,99.10
2019-04-27T05:37:09.027Z,98.90
2019-04-27T05:39:38.877Z,98.80
2019-04-27T05:42:12.567Z,98.70
2019-04-27T05:45:22.854Z,99.20
2019-04-27T05:48:00.722Z,99.20
2019-04-27T05:50:38.102Z,99.90
2019-04-27T05:53:01.018Z,99.90
2019-04-27T05:55:30.036Z,99.90
2019-04-27T05:57:59.207Z,99.90
2019-04-27T06:00:29.342Z,99.90
2019-04-27T06:02:59.088Z,99.90
2019-04-27T06:05:29.225Z,99.90
2019-04-27T06:07:58.893Z,99.90
2019-04-27T06:10:29.630Z,99.90
2019-04-27T06:12:59.847Z,99.90
2019-04-27T06:15:30.215Z,99.90
2019-04-27T06:17:59.695Z,99.90
2019-04-27T06:20:28.761Z,99.90
2019-04-27T06:22:58.829Z,99.90
2019-04-27T06:25:30.513Z,99.90
2019-04-27T06:27:59.296Z,99.90
2019-04-27T06:30:29.203Z,99.90
2019-04-27T06:32:59.463Z,99.90
2019-04-27T06:35:28.874Z,99.90
2019-04-27T06:37:58.582Z,99.90
2019-04-27T06:40:29.060Z,99.90
2019-04-27T06:42:59.568Z,99.90
2019-04-27T06:45:28.784Z,99.90
2019-04-27T06:47:59.554Z,99.90
2019-04-27T06:50:29.593Z,99.90
2019-04-27T06:52:59.092Z,99.90
2019-04-27T06:55:29.106Z,99.90
2019-04-27T06:57:58.822Z,99.90
2019-04-27T07:00:28.933Z,99.90
2019-04-27T07:02:59.511Z,99.90
2019-04-27T07:05:29.064Z,99.90
2019-04-27T07:07:59.113Z,99.90
2019-04-27T07:10:28.715Z,99.90
2019-04-27T07:12:59.687Z,99.90
2019-04-27T07:15:28.846Z,99.90
2019-04-27T07:17:58.629Z,99.90
2019-04-27T07:20:30.310Z,99.90
2019-04-27T07:22:59.474Z,99.90
2019-04-27T07:25:29.090Z,99.90
2019-04-27T07:27:59.193Z,99.90
2019-04-27T07:30:32.520Z,99.90
2019-04-27T07:33:01.680Z,99.90
2019-04-27T07:35:30.769Z,99.90
2019-04-27T07:37:59.677Z,99.90
2019-04-27T07:40:30.347Z,99.90
2019-04-27T07:43:06.523Z,99.90
2019-04-27T07:45:39.427Z,99.90
2019-04-27T07:48:09.169Z,99.90
2019-04-27T07:50:39.029Z,99.90
2019-04-27T07:53:08.646Z,99.90
2019-04-27T07:55:39.274Z,99.90
2019-04-27T07:58:08.958Z,99.90
2019-04-27T08:00:39.482Z,99.90
2019-04-27T08:03:10.033Z,99.90
2019-04-27T08:05:39.488Z,99.90
2019-04-27T08:08:08.998Z,99.90
2019-04-27T08:10:39.226Z,99.90
2019-04-27T08:13:09.585Z,99.90
2019-04-27T08:15:39.699Z,99.90
2019-04-27T08:18:09.117Z,99.90
2019-04-27T08:20:39.065Z,99.90
2019-04-27T08:23:09.627Z,99.90
2019-04-27T08:25:39.250Z,99.90
2019-04-27T08:28:19.284Z,99.90
2019-04-27T08:31:08.911Z,99.90
2019-04-27T08:33:38.915Z,99.90
2019-04-27T08:36:08.975Z,99.90
2019-04-27T08:38:38.976Z,99.90
2019-04-27T08:41:08.966Z,99.90
2019-04-27T08:43:39.030Z,99.90
2019-04-27T08:46:08.785Z,99.90
2019-04-27T08:48:39.343Z,99.90
2019-04-27T08:51:09.547Z,99.90
2019-04-27T08:53:39.810Z,99.90
2019-04-27T08:56:09.365Z,99.90
2019-04-27T08:58:38.706Z,99.90
2019-04-27T09:01:10.205Z,99.90
2019-04-27T09:03:39.467Z,99.90
2019-04-27T09:06:10.607Z,99.90
2019-04-27T09:08:45.679Z,99.90
2019-04-27T09:11:32.911Z,99.90
2019-04-27T09:14:09.029Z,99.90
2019-04-27T09:16:57.225Z,99.90
2019-04-27T09:19:43.478Z,99.90
2019-04-27T09:22:16.289Z,99.90
2019-04-27T09:24:43.366Z,99.90
2019-04-27T09:27:12.240Z,99.90
2019-04-27T09:29:41.216Z,99.90
2019-04-27T09:32:10.335Z,99.90
2019-04-27T09:34:39.331Z,99.90
2019-04-27T09:37:08.597Z,99.90
2019-04-27T09:39:37.781Z,99.90
2019-04-27T09:42:07.047Z,99.90
2019-04-27T09:44:37.061Z,99.90
2019-04-27T09:47:06.354Z,99.90
2019-04-27T09:49:39.134Z,99.90
2019-04-27T09:52:23.621Z,99.90
2019-04-27T09:54:43.186Z,99.90
2019-04-27T09:57:12.243Z,99.90
2019-04-27T09:59:41.233Z,99.90
2019-04-27T10:02:10.247Z,99.90
2019-04-27T10:04:39.222Z,99.90
2019-04-27T10:07:08.247Z,99.90
2019-04-27T10:09:37.324Z,99.90
2019-04-27T10:12:07.523Z,99.90
2019-04-27T10:14:36.715Z,99.90
2019-04-27T10:17:05.699Z,99.90
2019-04-27T10:19:36.400Z,99.90
2019-04-27T10:22:05.861Z,99.90
2019-04-27T10:24:35.811Z,99.90
2019-04-27T10:27:07.779Z,99.30
2019-04-27T10:29:36.598Z,99.70
2019-04-27T10:32:06.322Z,98.80
2019-04-27T10:34:35.374Z,98.90
2019-04-27T10:37:06.076Z,98.60
2019-04-27T10:39:36.106Z,99.00
2019-04-27T10:42:06.799Z,97.20
2019-04-27T10:44:36.279Z,97.60
2019-04-27T10:47:06.008Z,97.90
2019-04-27T10:49:35.205Z,97.40
2019-04-27T10:52:05.889Z,97.40
2019-04-27T10:54:35.123Z,96.90
2019-04-27T10:57:05.950Z,96.40
2019-04-27T10:59:36.065Z,95.50
2019-04-27T11:02:05.445Z,96.00
2019-04-27T11:04:52.314Z,96.10
2019-04-27T11:07:23.501Z,95.00
2019-04-27T11:09:52.420Z,95.50
2019-04-27T11:12:21.479Z,95.10
2019-04-27T11:14:50.483Z,95.30
2019-04-27T11:17:19.497Z,95.60
2019-04-27T11:19:48.802Z,95.50
2019-04-27T11:22:17.798Z,95.70
2019-04-27T11:24:47.977Z,96.40
2019-04-27T11:27:17.414Z,96.80
2019-04-27T11:29:46.378Z,97.40
2019-04-27T11:32:15.886Z,98.10
2019-04-27T11:35:02.977Z,97.80
2019-04-27T11:37:35.649Z,97.70
2019-04-27T11:40:06.835Z,97.90
2019-04-27T11:42:35.973Z,98.50
2019-04-27T11:45:06.598Z,98.70
2019-04-27T11:47:36.542Z,98.70
2019-04-27T11:50:06.350Z,98.80
2019-04-27T11:52:36.851Z,97.80
2019-04-27T11:55:07.233Z,96.80
2019-04-27T11:57:37.630Z,97.60
2019-04-27T12:00:11.917Z,96.30
2019-04-27T12:02:46.536Z,96.40
2019-04-27T12:05:16.347Z,96.00
2019-04-27T12:07:47.542Z,95.10
2019-04-27T12:10:16.355Z,94.70
2019-04-27T12:12:46.320Z,94.50
2019-04-27T12:15:16.581Z,93.60
2019-04-27T12:17:46.174Z,93.20
2019-04-27T12:20:17.872Z,92.30
2019-04-27T12:22:46.521Z,92.10
2019-04-27T12:25:17.049Z,92.20
2019-04-27T12:28:11.152Z,91.80
2019-04-27T12:30:53.555Z,91.60
2019-04-27T12:33:23.082Z,91.50
2019-04-27T12:35:52.240Z,90.50
2019-04-27T12:38:21.262Z,90.60
2019-04-27T12:40:50.335Z,90.30
2019-04-27T12:43:19.412Z,90.10
2019-04-27T12:45:48.548Z,89.00
2019-04-27T12:48:17.574Z,88.80
2019-04-27T12:50:46.559Z,86.50
2019-04-27T12:53:23.153Z,84.30
2019-04-27T12:56:02.366Z,82.30
2019-04-27T12:58:39.988Z,80.10
2019-04-27T13:01:11.712Z,78.80
2019-04-27T13:03:41.047Z,77.80
2019-04-27T13:06:10.144Z,75.40
2019-04-27T13:08:39.264Z,73.70
2019-04-27T13:11:08.773Z,73.20
2019-04-27T13:13:37.770Z,72.20
2019-04-27T13:16:07.109Z,72.60
2019-04-27T13:18:36.290Z,73.80
2019-04-27T13:21:05.234Z,74.40
2019-04-27T13:23:34.284Z,72.40
2019-04-27T13:26:03.320Z,72.20
2019-04-27T13:28:32.959Z,70.60
2019-04-27T13:31:01.890Z,71.90
2019-04-27T13:33:30.841Z,72.60
2019-04-27T13:35:59.911Z,72.70
2019-04-27T13:38:28.881Z,72.50
2019-04-27T13:41:11.910Z,70.30
2019-04-27T13:43:41.001Z,70.80
2019-04-27T13:46:20.418Z,68.60
2019-04-27T13:49:07.293Z,68.70
2019-04-27T13:52:10.907Z,69.30
2019-04-27T13:54:39.981Z,69.20
2019-04-27T13:57:09.010Z,69.50
2019-04-27T13:59:38.182Z,68.20
2019-04-27T14:02:07.258Z,68.80
2019-04-27T14:04:36.203Z,70.80
2019-04-27T14:07:05.463Z,71.80
2019-04-27T14:09:34.586Z,72.20
2019-04-27T14:12:22.094Z,72.90
2019-04-27T14:14:51.193Z,77.70
2019-04-27T14:17:20.364Z,82.00
2019-04-27T14:19:49.769Z,87.30
2019-04-27T14:22:18.901Z,87.90
2019-04-27T14:24:48.704Z,88.70
2019-04-27T14:27:19.050Z,89.10
2019-04-27T14:29:48.949Z,88.90
2019-04-27T14:32:20.798Z,86.80
2019-04-27T14:34:50.410Z,86.70
2019-04-27T14:37:19.576Z,86.40
2019-04-27T14:39:48.748Z,86.10
2019-04-27T14:42:19.195Z,85.60
2019-04-27T14:44:49.052Z,83.70
2019-04-27T14:47:18.925Z,83.10
2019-04-27T14:49:49.048Z,82.80
2019-04-27T14:52:18.797Z,82.70
2019-04-27T14:54:50.700Z,83.00
2019-04-27T14:57:20.387Z,83.20
2019-04-27T14:59:50.047Z,83.20
2019-04-27T15:02:19.203Z,83.60
2019-04-27T15:04:48.419Z,82.30
2019-04-27T15:07:17.682Z,83.10
2019-04-27T15:09:49.800Z,83.30
2019-04-27T15:12:17.489Z,84.00
2019-04-27T15:14:47.216Z,85.60
2019-04-27T15:17:17.599Z,85.70
2019-04-27T15:19:54.026Z,86.30
2019-04-27T15:22:27.638Z,85.80
2019-04-27T15:25:09.200Z,89.00
2019-04-27T15:27:37.542Z,91.30
2019-04-27T15:30:11.553Z,94.20
2019-04-27T15:33:02.370Z,95.60
2019-04-27T15:35:40.664Z,96.50
2019-04-27T15:38:13.977Z,96.60
2019-04-27T15:41:02.375Z,96.30
2019-04-27T15:43:34.180Z,95.40
2019-04-27T15:46:09.777Z,94.40
2019-04-27T15:48:38.937Z,93.40
2019-04-27T15:51:14.629Z,92.20
2019-04-27T15:53:41.613Z,90.70
2019-04-27T15:56:09.554Z,91.20
2019-04-27T15:58:38.858Z,91.70
2019-04-27T16:01:11.593Z,90.60
2019-04-27T16:03:40.254Z,88.80
2019-04-27T16:06:11.928Z,89.50
2019-04-27T16:08:45.243Z,87.10
2019-04-27T16:11:16.377Z,87.40
2019-04-27T16:13:42.090Z,87.00
2019-04-27T16:16:11.206Z,85.40
2019-04-27T16:18:40.345Z,85.20
2019-04-27T16:21:11.072Z,85.50
2019-04-27T16:23:43.166Z,86.10
2019-04-27T16:26:15.040Z,88.00
2019-04-27T16:28:49.731Z,88.90
2019-04-27T16:31:14.376Z,89.90
2019-04-27T16:33:43.616Z,90.00
2019-04-27T16:36:12.786Z,90.40
2019-04-27T16:38:53.708Z,91.00
2019-04-27T16:41:22.959Z,92.00
2019-04-27T16:43:52.108Z,92.90
2019-04-27T16:46:21.570Z,93.40
2019-04-27T16:48:50.781Z,94.10
2019-04-27T16:51:19.945Z,94.70
2019-04-27T16:53:49.260Z,94.60
2019-04-27T16:56:20.623Z,94.60
2019-04-27T16:58:56.585Z,94.60
2019-04-27T17:01:30.298Z,94.30
2019-04-27T17:04:02.209Z,94.30
2019-04-27T17:06:31.116Z,93.80
2019-04-27T17:09:05.589Z,94.00
2019-04-27T17:11:31.066Z,93.60
2019-04-27T17:14:29.167Z,93.70
2019-04-27T17:17:21.545Z,93.70
2019-04-27T17:19:53.538Z,93.40
2019-04-27T17:22:22.589Z,93.60
2019-04-27T17:24:51.636Z,93.80
2019-04-27T17:27:29.318Z,93.90
2019-04-27T17:30:01.228Z,93.80
2019-04-27T17:32:44.322Z,93.90
2019-04-27T17:35:15.051Z,93.40
2019-04-27T17:37:44.430Z,93.40
2019-04-27T17:40:15.550Z,93.40
2019-04-27T17:42:44.633Z,93.30
2019-04-27T17:45:14.233Z,93.50
2019-04-27T17:47:43.141Z,93.50
2019-04-27T17:50:12.600Z,93.30
2019-04-27T17:52:41.687Z,93.40
2019-04-27T17:55:17.798Z,93.40
2019-04-27T17:57:44.674Z,93.00
2019-04-27T18:00:13.969Z,92.80
2019-04-27T18:02:43.002Z,92.70
2019-04-27T18:05:13.794Z,92.60
2019-04-27T18:07:44.412Z,92.60
2019-04-27T18:10:22.810Z,92.80
2019-04-27T18:12:48.143Z,93.00
2019-04-27T18:15:16.112Z,92.80
2019-04-27T18:17:51.425Z,93.10
2019-04-27T18:20:21.068Z,93.20
2019-04-27T18:22:54.159Z,92.90
2019-04-27T18:25:23.053Z,93.00
2019-04-27T18:28:20.292Z,93.10
2019-04-27T18:31:06.244Z,95.20
2019-04-27T18:33:37.169Z,97.00
2019-04-27T18:36:11.552Z,98.10
2019-04-27T18:38:37.385Z,99.30
2019-04-27T18:41:11.550Z,99.90
2019-04-27T18:43:46.508Z,99.90
2019-04-27T18:46:10.732Z,99.90
2019-04-27T18:49:01.987Z,99.90
2019-04-27T18:51:40.450Z,99.90
2019-04-27T18:54:09.388Z,99.90
2019-04-27T18:56:41.541Z,99.90
2019-04-27T18:59:09.441Z,99.90
2019-04-27T19:01:38.289Z,99.90
2019-04-27T19:04:08.698Z,99.90
2019-04-27T19:06:39.153Z,99.90
2019-04-27T19:09:08.550Z,99.90
2019-04-27T19:11:38.232Z,99.90
2019-04-27T19:14:08.287Z,99.90
2019-04-27T19:16:38.393Z,99.90
2019-04-27T19:19:08.664Z,99.90
2019-04-27T19:21:39.223Z,99.90
2019-04-27T19:24:08.985Z,99.90
2019-04-27T19:26:48.307Z,99.90
2019-04-27T19:29:21.273Z,99.90
2019-04-27T19:31:55.899Z,99.90
2019-04-27T19:34:24.783Z,99.90
2019-04-27T19:36:53.717Z,99.90
2019-04-27T19:39:22.835Z,99.90
2019-04-27T19:42:00.449Z,99.90
2019-04-27T19:44:22.431Z,99.90
2019-04-27T19:46:51.573Z,99.90
2019-04-27T19:49:20.561Z,99.90
2019-04-27T19:51:49.772Z,99.90
2019-04-27T19:54:18.779Z,99.90
2019-04-27T19:56:49.905Z,99.90
2019-04-27T19:59:23.448Z,99.90
2019-04-27T20:01:54.487Z,99.90
2019-04-27T20:04:27.413Z,99.90
2019-04-27T20:06:56.455Z,99.90
2019-04-27T20:09:41.122Z,99.90
2019-04-27T20:12:10.517Z,99.90
2019-04-27T20:14:57.918Z,99.90
2019-04-27T20:17:28.370Z,99.90
2019-04-27T20:19:57.579Z,99.90
2019-04-27T20:22:26.530Z,99.90
2019-04-27T20:24:55.654Z,99.90
2019-04-27T20:27:24.622Z,99.90
2019-04-27T20:29:53.651Z,99.90
2019-04-27T20:32:22.633Z,99.90
2019-04-27T20:34:51.616Z,99.90
2019-04-27T20:37:21.105Z,99.90
2019-04-27T20:39:51.432Z,99.90
2019-04-27T20:42:21.150Z,99.90
2019-04-27T20:44:51.587Z,99.90
2019-04-27T20:47:20.979Z,99.90
2019-04-27T20:49:50.028Z,99.90
2019-04-27T20:52:31.593Z,99.90
2019-04-27T20:55:01.503Z,99.90
2019-04-27T20:57:31.735Z,99.90
2019-04-27T21:00:02.045Z,99.90
2019-04-27T21:02:37.280Z,99.90
2019-04-27T21:05:28.486Z,99.90
2019-04-27T21:08:01.413Z,99.90
2019-04-27T21:10:30.787Z,99.90
2019-04-27T21:13:01.738Z,99.90
2019-04-27T21:15:31.493Z,99.90
2019-04-27T21:18:01.253Z,99.90
2019-04-27T21:20:41.030Z,99.90
2019-04-27T21:23:11.913Z,99.90
2019-04-27T21:25:42.034Z,99.90
2019-04-27T21:28:17.966Z,99.90
2019-04-27T21:30:42.096Z,99.90
2019-04-27T21:33:11.652Z,99.90
2019-04-27T21:35:40.693Z,99.90
2019-04-27T21:38:11.560Z,99.90
2019-04-27T21:40:40.957Z,99.90
2019-04-27T21:43:11.317Z,99.90
2019-04-27T21:45:42.032Z,99.90
2019-04-27T21:48:11.216Z,99.90
2019-04-27T21:50:41.341Z,99.60
2019-04-27T21:53:27.074Z,99.30
2019-04-27T21:56:01.582Z,98.90
2019-04-27T21:58:31.331Z,98.70
2019-04-27T22:01:22.350Z,98.50
2019-04-27T22:03:52.755Z,98.30
2019-04-27T22:06:22.152Z,98.10
2019-04-27T22:08:51.443Z,98.10
2019-04-27T22:11:21.876Z,97.90
2019-04-27T22:13:51.364Z,97.90
2019-04-27T22:16:21.334Z,97.60
2019-04-27T22:18:51.911Z,97.60
2019-04-27T22:21:21.790Z,97.40
2019-04-27T22:24:10.681Z,97.20
2019-04-27T22:26:41.498Z,97.20
2019-04-27T22:29:12.068Z,97.00
2019-04-27T22:31:41.607Z,97.30
2019-04-27T22:34:10.955Z,97.20
2019-04-27T22:36:39.942Z,97.10
2019-04-27T22:39:34.005Z,96.90
2019-04-27T22:42:23.105Z,97.00
2019-04-27T22:44:54.907Z,96.80
2019-04-27T22:47:26.993Z,96.70
2019-04-27T22:49:55.961Z,96.50
2019-04-27T22:52:24.917Z,96.50
2019-04-27T22:54:53.792Z,96.40
2019-04-27T22:57:31.550Z,96.50
2019-04-27T23:00:11.266Z,96.40
2019-04-27T23:02:52.926Z,96.40
2019-04-27T23:05:21.768Z,96.30
2019-04-27T23:07:51.715Z,96.30
2019-04-27T23:10:21.397Z,96.50
2019-04-27T23:12:51.032Z,97.10
2019-04-27T23:15:22.769Z,97.20
2019-04-27T23:17:55.718Z,96.90
2019-04-27T23:20:24.919Z,96.60
2019-04-27T23:22:54.297Z,96.50
2019-04-27T23:25:23.294Z,96.50
2019-04-27T23:27:59.524Z,96.90
2019-04-27T23:30:41.818Z,97.30
2019-04-27T23:33:11.213Z,97.50
2019-04-27T23:35:41.399Z,97.00
2019-04-27T23:38:17.601Z,97.10
2019-04-27T23:40:41.873Z,97.10
2019-04-27T23:43:12.155Z,97.10
2019-04-27T23:45:41.931Z,97.20
2019-04-27T23:48:12.402Z,97.30
2019-04-27T23:50:44.199Z,97.30
2019-04-27T23:53:17.172Z,97.50
2019-04-27T23:55:46.473Z,97.60
2019-04-27T23:58:15.780Z,97.70
